首页
METAR-TAF:

METAR-TAF

机场 :

空军基地

Landivisiau, 法国

纬度: 48-31N, 经度: 004-09W, 海拔: 106米

当前天气观测

该预报发布于25分钟前的20:00 UTC
风速10节,风向
温度 9°C
湿度 93%
气压 1013 hPa
能见度10公里或以上
少量云层高于1700英尺
多云层高于5200英尺

METAR: LFRJ 292000Z AUTO 17010KT 9999 FEW017 BKN052 09/08 Q1013 BECMG OVC010

时间: 21:25 (20:25 UTC)

预报

该预报发布于3小时和25分钟前的17:00 UTC
预报有效从29日的 18点(UTC)到 30日的 03点(UTC)
风速9节,风向南转西南
能见度10公里或以上
散云层高于2500英尺
短暂存在
从 29日的 18点(UTC)到 29日的 20点(UTC)
多云层高于1400英尺
成为
从 29日的 20点(UTC)到 29日的 22点(UTC)
阴天层高于1000英尺
短暂存在
从 29日的 22点(UTC)到 29日的 24点(UTC)
能見度: 3000
阴天层高于500英尺
雨, 毛毛雨

TAF: LFRJ 291700Z 2918/3003 20009KT 9999 SCT025 TEMPO 2918/2920 BKN014 BECMG 2920/2922 OVC010 TEMPO 2922/2924 3000 RADZ OVC005

超过4000个机场的气象观测和天气预报(METAR&TAF报告)。

可查询的气象台以黄色和红色小点在地图上表示。

将鼠标移到小点上方,可查看气象台名称。

然后点击查看天气观测和预报。

如需切换地图:点击带黑十字的绿色按钮放大地图;点击带横线的绿色按钮缩小地图;或者点击绿色箭头查看邻近地区的地图。


METAR-TAF: